N301AZ KMMU-KAPA
Flight info
| Callsign | N301AZ |
|---|---|
| Flight time | N/A |
| Altitude | 45000 |
| Route | NEWEL J60 DJB HCT SAYGE |
| Aircraft | E55P/M-SDGRWY/L |
Departure
| Time | 2026-04-18 17:54 |
|---|---|
| Airport | Morristown Municipal Airport (KMMU) |
Arrival
| Time | N/A |
|---|---|
| Airport | Centennial Airport (KAPA) |
| Time | Latitude | Longitude | Altitude | Speed | Heading |
|---|---|---|---|---|---|
| 2026-04-18 17:18 | 40.79573 | -74.41979 | 193 ft | 0 kts | 307° |
| 2026-04-18 17:42 | 40.79573 | -74.41980 | 193 ft | 0 kts | 307° |
| 2026-04-18 17:43 | 40.79573 | -74.41981 | 193 ft | 0 kts | 307° |
| 2026-04-18 17:43 | 40.79575 | -74.41983 | 193 ft | 0 kts | 307° |
| 2026-04-18 17:45 | 40.79576 | -74.41984 | 193 ft | 0 kts | 314° |
| 2026-04-18 17:46 | 40.79584 | -74.41985 | 193 ft | 2 kts | 30° |
| 2026-04-18 17:46 | 40.79599 | -74.41970 | 193 ft | 3 kts | 37° |
| 2026-04-18 17:46 | 40.79618 | -74.41933 | 193 ft | 6 kts | 70° |
| 2026-04-18 17:46 | 40.79626 | -74.41866 | 193 ft | 8 kts | 95° |
| 2026-04-18 17:47 | 40.79617 | -74.41819 | 193 ft | 4 kts | 82° |
| 2026-04-18 17:47 | 40.79643 | -74.41783 | 193 ft | 6 kts | 34° |
| 2026-04-18 17:47 | 40.79686 | -74.41742 | 193 ft | 8 kts | 37° |
| 2026-04-18 17:47 | 40.79739 | -74.41692 | 193 ft | 9 kts | 36° |
| 2026-04-18 17:48 | 40.79799 | -74.41635 | 193 ft | 11 kts | 36° |
| 2026-04-18 17:48 | 40.79867 | -74.41570 | 193 ft | 12 kts | 37° |
| 2026-04-18 17:48 | 40.79942 | -74.41496 | 193 ft | 14 kts | 37° |
| 2026-04-18 17:48 | 40.80025 | -74.41417 | 193 ft | 15 kts | 36° |
| 2026-04-18 17:49 | 40.80115 | -74.41331 | 193 ft | 16 kts | 37° |
| 2026-04-18 17:49 | 40.80206 | -74.41242 | 193 ft | 16 kts | 36° |
| 2026-04-18 17:49 | 40.80299 | -74.41152 | 193 ft | 16 kts | 38° |
| 2026-04-18 17:49 | 40.80385 | -74.41071 | 193 ft | 14 kts | 36° |
| 2026-04-18 17:50 | 40.80463 | -74.40995 | 193 ft | 12 kts | 36° |
| 2026-04-18 17:50 | 40.80533 | -74.40929 | 193 ft | 12 kts | 36° |
| 2026-04-18 17:50 | 40.80602 | -74.40863 | 193 ft | 11 kts | 36° |
| 2026-04-18 17:50 | 40.80662 | -74.40805 | 193 ft | 8 kts | 37° |
| 2026-04-18 17:51 | 40.80687 | -74.40767 | 193 ft | 3 kts | 80° |
| 2026-04-18 17:51 | 40.80685 | -74.40745 | 193 ft | 1 kts | 116° |
| 2026-04-18 17:51 | 40.80683 | -74.40742 | 193 ft | 0 kts | 120° |
| 2026-04-18 17:52 | 40.80683 | -74.40741 | 193 ft | 0 kts | 120° |
| 2026-04-18 17:52 | 40.80668 | -74.40712 | 193 ft | 7 kts | 127° |
| 2026-04-18 17:52 | 40.80637 | -74.40659 | 193 ft | 3 kts | 144° |
| 2026-04-18 17:52 | 40.80620 | -74.40667 | 193 ft | 2 kts | 217° |
| 2026-04-18 17:53 | 40.80618 | -74.40668 | 193 ft | 0 kts | 217° |
| 2026-04-18 17:53 | 40.80475 | -74.40805 | 193 ft | 63 kts | 216° |
| 2026-04-18 17:53 | 40.79924 | -74.41338 | 212 ft | 125 kts | 212° |
| 2026-04-18 17:53 | 40.79165 | -74.42055 | 588 ft | 149 kts | 211° |
| 2026-04-18 17:54 | 40.78162 | -74.42712 | 1088 ft | 169 kts | 196° |
| 2026-04-18 17:54 | 40.76994 | -74.43263 | 1688 ft | 185 kts | 197° |
| 2026-04-18 17:54 | 40.75786 | -74.43795 | 2512 ft | 183 kts | 182° |
| 2026-04-18 17:54 | 40.74588 | -74.43414 | 3340 ft | 179 kts | 152° |
| 2026-04-18 17:55 | 40.73511 | -74.42582 | 4088 ft | 184 kts | 147° |
| 2026-04-18 17:55 | 40.72643 | -74.41363 | 4812 ft | 191 kts | 114° |
| 2026-04-18 17:55 | 40.72564 | -74.39660 | 5458 ft | 202 kts | 74° |
| 2026-04-18 17:55 | 40.73219 | -74.37992 | 6144 ft | 209 kts | 59° |
| 2026-04-18 17:56 | 40.73997 | -74.36358 | 6929 ft | 210 kts | 55° |
| 2026-04-18 17:56 | 40.75066 | -74.35108 | 7606 ft | 210 kts | 16° |
| 2026-04-18 17:56 | 40.77368 | -74.36214 | 8910 ft | 197 kts | 296° |
| 2026-04-18 17:57 | 40.77750 | -74.37667 | 9528 ft | 195 kts | 282° |
| 2026-04-18 17:57 | 40.78418 | -74.41148 | 10411 ft | 223 kts | 282° |
| 2026-04-18 17:58 | 40.79216 | -74.45342 | 11431 ft | 248 kts | 282° |
| 2026-04-18 17:58 | 40.80058 | -74.49970 | 12664 ft | 262 kts | 283° |
| 2026-04-18 17:59 | 40.80923 | -74.54694 | 14127 ft | 265 kts | 282° |
| 2026-04-18 17:59 | 40.81352 | -74.57052 | 14812 ft | 267 kts | 282° |
| 2026-04-18 17:59 | 40.82236 | -74.61877 | 16144 ft | 273 kts | 283° |
| 2026-04-18 18:00 | 40.82683 | -74.64316 | 16820 ft | 275 kts | 282° |
| 2026-04-18 18:00 | 40.83498 | -74.68780 | 17999 ft | 278 kts | 282° |
| 2026-04-18 18:01 | 40.84430 | -74.73850 | 19194 ft | 284 kts | 284° |
| 2026-04-18 18:01 | 40.84301 | -74.79013 | 20337 ft | 289 kts | 262° |
| 2026-04-18 18:02 | 40.83699 | -74.84284 | 21489 ft | 295 kts | 262° |
| 2026-04-18 18:02 | 40.83076 | -74.89661 | 22666 ft | 297 kts | 262° |
| 2026-04-18 18:02 | 40.82760 | -74.92378 | 23218 ft | 299 kts | 262° |
| 2026-04-18 18:03 | 40.82122 | -74.97870 | 24202 ft | 306 kts | 261° |
| 2026-04-18 18:03 | 40.81792 | -75.00669 | 24692 ft | 308 kts | 261° |
| 2026-04-18 18:04 | 40.81129 | -75.06329 | 25652 ft | 314 kts | 260° |
| 2026-04-18 18:04 | 40.80786 | -75.09206 | 26119 ft | 316 kts | 260° |
| 2026-04-18 18:04 | 40.80103 | -75.14999 | 26971 ft | 323 kts | 260° |
| 2026-04-18 18:05 | 40.79400 | -75.20922 | 27843 ft | 327 kts | 259° |
| 2026-04-18 18:05 | 40.79046 | -75.23886 | 28213 ft | 331 kts | 259° |
| 2026-04-18 18:05 | 40.78683 | -75.26924 | 28608 ft | 334 kts | 259° |
| 2026-04-18 18:06 | 40.77953 | -75.33003 | 29410 ft | 338 kts | 259° |
| 2026-04-18 18:06 | 40.77581 | -75.36103 | 29769 ft | 341 kts | 259° |
| 2026-04-18 18:06 | 40.77209 | -75.39193 | 30209 ft | 341 kts | 259° |
| 2026-04-18 18:07 | 40.76836 | -75.42265 | 30701 ft | 340 kts | 259° |
| 2026-04-18 18:07 | 40.76459 | -75.45370 | 31178 ft | 339 kts | 259° |
| 2026-04-18 18:07 | 40.75710 | -75.51532 | 32052 ft | 339 kts | 259° |
| 2026-04-18 18:08 | 40.75328 | -75.54679 | 32520 ft | 338 kts | 259° |
| 2026-04-18 18:08 | 40.74947 | -75.57785 | 32965 ft | 337 kts | 259° |
| 2026-04-18 18:08 | 40.74568 | -75.60886 | 33387 ft | 337 kts | 259° |
| 2026-04-18 18:08 | 40.74190 | -75.63953 | 33795 ft | 337 kts | 259° |
| 2026-04-18 18:09 | 40.73810 | -75.67049 | 34267 ft | 336 kts | 258° |
| 2026-04-18 18:09 | 40.73494 | -75.69610 | 34711 ft | 334 kts | 258° |
| 2026-04-18 18:09 | 40.73143 | -75.72453 | 35236 ft | 330 kts | 258° |
| 2026-04-18 18:09 | 40.72771 | -75.75446 | 35734 ft | 328 kts | 258° |
| 2026-04-18 18:10 | 40.72400 | -75.78442 | 36192 ft | 327 kts | 258° |
| 2026-04-18 18:10 | 40.72032 | -75.81398 | 36624 ft | 327 kts | 258° |
| 2026-04-18 18:10 | 40.71659 | -75.84381 | 37071 ft | 326 kts | 258° |
| 2026-04-18 18:10 | 40.71297 | -75.87293 | 37522 ft | 325 kts | 258° |
| 2026-04-18 18:11 | 40.70929 | -75.90238 | 38014 ft | 323 kts | 258° |
| 2026-04-18 18:11 | 40.70557 | -75.93180 | 38419 ft | 322 kts | 258° |
| 2026-04-18 18:11 | 40.70195 | -75.96076 | 38845 ft | 321 kts | 258° |
| 2026-04-18 18:11 | 40.69826 | -75.98992 | 39228 ft | 321 kts | 258° |
| 2026-04-18 18:12 | 40.69460 | -76.01893 | 39636 ft | 320 kts | 258° |
| 2026-04-18 18:12 | 40.69092 | -76.04793 | 40004 ft | 319 kts | 258° |
| 2026-04-18 18:12 | 40.68722 | -76.07703 | 40388 ft | 319 kts | 258° |
| 2026-04-18 18:12 | 40.68359 | -76.10573 | 40738 ft | 318 kts | 258° |
| 2026-04-18 18:13 | 40.67990 | -76.13470 | 41090 ft | 317 kts | 258° |
| 2026-04-18 18:13 | 40.67625 | -76.16317 | 41430 ft | 316 kts | 258° |
| 2026-04-18 18:13 | 40.67261 | -76.19175 | 41792 ft | 315 kts | 258° |
| 2026-04-18 18:13 | 40.66902 | -76.22002 | 42113 ft | 314 kts | 260° |
| 2026-04-18 18:14 | 40.66790 | -76.24903 | 42426 ft | 316 kts | 271° |
| 2026-04-18 18:14 | 40.67115 | -76.27778 | 42698 ft | 319 kts | 280° |
| 2026-04-18 18:14 | 40.67617 | -76.30656 | 43028 ft | 317 kts | 278° |
| 2026-04-18 18:14 | 40.68055 | -76.33491 | 43334 ft | 316 kts | 278° |
| 2026-04-18 18:15 | 40.68486 | -76.36329 | 43599 ft | 316 kts | 278° |
| 2026-04-18 18:15 | 40.68919 | -76.39194 | 43870 ft | 316 kts | 278° |
| 2026-04-18 18:15 | 40.69339 | -76.42012 | 44118 ft | 315 kts | 278° |
| 2026-04-18 18:15 | 40.69765 | -76.44869 | 44338 ft | 314 kts | 278° |
| 2026-04-18 18:16 | 40.70220 | -76.47741 | 44549 ft | 314 kts | 279° |
| 2026-04-18 18:16 | 40.70639 | -76.50555 | 44738 ft | 313 kts | 278° |
| 2026-04-18 18:16 | 40.71071 | -76.53404 | 44906 ft | 314 kts | 278° |
| 2026-04-18 18:16 | 40.71494 | -76.56231 | 44999 ft | 317 kts | 278° |
| 2026-04-18 18:17 | 40.72330 | -76.61890 | 44987 ft | 310 kts | 278° |
| 2026-04-18 18:17 | 40.73143 | -76.67442 | 44996 ft | 313 kts | 277° |
| 2026-04-18 18:18 | 40.73976 | -76.73159 | 44996 ft | 316 kts | 277° |
| 2026-04-18 18:18 | 40.74823 | -76.78977 | 44997 ft | 327 kts | 277° |
| 2026-04-18 18:19 | 40.75693 | -76.85006 | 44987 ft | 339 kts | 277° |
| 2026-04-18 18:19 | 40.76592 | -76.91258 | 44980 ft | 350 kts | 277° |
| 2026-04-18 18:20 | 40.77509 | -76.97626 | 44978 ft | 361 kts | 277° |
| 2026-04-18 18:20 | 40.78458 | -77.04258 | 44972 ft | 373 kts | 277° |
| 2026-04-18 18:21 | 40.79435 | -77.11135 | 44968 ft | 385 kts | 277° |
| 2026-04-18 18:21 | 40.80440 | -77.18216 | 44954 ft | 396 kts | 278° |
| 2026-04-18 18:22 | 40.81471 | -77.25519 | 44952 ft | 407 kts | 277° |
| 2026-04-18 18:22 | 40.82505 | -77.32865 | 44939 ft | 402 kts | 277° |
| 2026-04-18 18:23 | 40.83521 | -77.40158 | 44949 ft | 402 kts | 277° |
| 2026-04-18 18:23 | 40.84533 | -77.47465 | 44961 ft | 403 kts | 278° |
| 2026-04-18 18:24 | 40.85561 | -77.54824 | 44954 ft | 404 kts | 277° |
| 2026-04-18 18:24 | 40.86573 | -77.62134 | 44966 ft | 404 kts | 278° |
| 2026-04-18 18:25 | 40.87553 | -77.69281 | 44973 ft | 401 kts | 277° |